Orbital elements of WILDBLUE-1
| Launched | 7 December 2006 |
| Flight ended | – |
| Launch site | Europe's Spaceport, Kourou, French Guiana |
| Owner | United States |
| NORAD ID | 29643 |
| Date fetched |
Epoch osculation |
Inc. [°] |
Ecc. | RA asc node [hr] |
Arg Peri. [°] |
Mean anom [°] |
Mean motion [rev/day] |
Abs. mag |
| Date fetched |
Epoch osculation |
Inc. [°] |
Ecc. | RA asc node [hr] |
Arg Peri. [°] |
Mean anom [°] |
Mean motion [rev/day] |
Abs. mag |
| 2026 May 08 17:57 | 2026 May 07 21:07:19 | 2.6990 | 0.00018 | 5.3979 | 336.4396 | 13.9531 | 1.00272 | – |
| 2026 May 07 17:58 | 2026 May 07 05:53:39 | 2.6975 | 0.00018 | 5.3984 | 335.0938 | 13.9531 | 1.00272 | – |
| 2026 May 06 17:57 | 2026 May 06 11:28:32 | 2.6957 | 0.00018 | 5.3990 | 332.9469 | 13.9531 | 1.00272 | – |
| 2026 May 05 17:57 | 2026 May 05 13:00:14 | 2.6935 | 0.00018 | 5.3998 | 330.2894 | 13.9531 | 1.00272 | – |
| 2026 May 04 17:57 | 2026 May 04 11:01:21 | 2.6909 | 0.00018 | 5.4007 | 326.7875 | 13.9531 | 1.00272 | – |
| 2026 May 03 17:57 | 2026 May 03 10:49:58 | 2.6886 | 0.00018 | 5.4016 | 323.4828 | 13.9531 | 1.00272 | – |
| 2026 May 02 17:57 | 2026 May 02 11:40:11 | 2.6864 | 0.00018 | 5.4024 | 320.7225 | 13.9531 | 1.00272 | – |
| 2026 May 01 17:56 | 2026 Apr 30 21:25:29 | 2.6826 | 0.00018 | 5.4036 | 326.5938 | 13.9531 | 1.00272 | – |
| 2026 Apr 30 17:56 | 2026 Apr 30 06:01:27 | 2.6811 | 0.00017 | 5.4041 | 324.1190 | 13.9531 | 1.00272 | – |
| 2026 Apr 29 17:57 | 2026 Apr 29 11:11:54 | 2.6792 | 0.00017 | 5.4048 | 320.4989 | 13.9531 | 1.00272 | – |
| 2026 Apr 28 17:56 | 2026 Apr 28 11:14:32 | 2.6767 | 0.00016 | 5.4055 | 316.2278 | 13.9531 | 1.00272 | – |
| 2026 Apr 27 17:58 | 2026 Apr 27 11:03:48 | 2.6742 | 0.00016 | 5.4063 | 311.6201 | 13.9531 | 1.00272 | – |
| 2026 Apr 26 17:58 | 2026 Apr 25 21:38:17 | 2.6702 | 0.00016 | 5.4074 | 304.7331 | 13.9531 | 1.00272 | – |
| 2026 Apr 25 17:58 | 2026 Apr 25 11:34:30 | 2.6690 | 0.00015 | 5.4078 | 303.0720 | 13.9531 | 1.00272 | – |
| 2026 Apr 24 17:59 | 2026 Apr 23 23:26:07 | 2.6649 | 0.00015 | 5.4088 | 313.1833 | 13.9531 | 1.00272 | – |
| 2026 Apr 23 17:57 | 2026 Apr 22 20:23:24 | 2.6617 | 0.00015 | 5.4097 | 304.7364 | 13.9531 | 1.00272 | – |
| 2026 Apr 22 17:57 | 2026 Apr 22 03:47:38 | 2.6597 | 0.00014 | 5.4102 | 302.8536 | 13.9531 | 1.00272 | – |
| 2026 Apr 21 17:57 | 2026 Apr 20 11:49:38 | 2.6547 | 0.00017 | 5.4115 | 293.0026 | 13.9531 | 1.00272 | – |
| 2026 Apr 20 17:57 | 2026 Apr 20 11:49:38 | 2.6547 | 0.00017 | 5.4115 | 293.0026 | 13.9531 | 1.00272 | – |
| 2026 Apr 19 17:58 | 2026 Apr 19 12:22:37 | 2.6521 | 0.00014 | 5.4127 | 295.2411 | 13.9531 | 1.00272 | – |
| 2026 Apr 18 17:56 | 2026 Apr 18 04:49:29 | 2.6483 | 0.00014 | 5.4137 | 295.0799 | 13.9531 | 1.00272 | – |
| 2026 Apr 16 17:57 | 2026 Apr 16 04:54:34 | 2.6425 | 0.00015 | 5.4155 | 310.3707 | 13.9531 | 1.00272 | – |
| 2026 Apr 14 17:57 | 2026 Apr 14 07:56:58 | 2.6374 | 0.00015 | 5.4173 | 307.1163 | 13.9531 | 1.00272 | – |
| 2026 Apr 13 17:57 | 2026 Apr 13 05:02:17 | 2.6344 | 0.00016 | 5.4183 | 305.4222 | 13.9531 | 1.00272 | – |
| 2026 Apr 12 17:57 | 2026 Apr 12 10:58:37 | 2.6325 | 0.00016 | 5.4190 | 304.4354 | 13.9531 | 1.00272 | – |
| 2026 Apr 11 17:57 | 2026 Apr 11 11:58:05 | 2.6301 | 0.00016 | 5.4199 | 302.5612 | 13.9531 | 1.00272 | – |